Time;durP1;ratioP1;P1;durP2;ratioP2;P2;SDS_P1;SDS_P2;PMS_P1;PMS_P2;Temp;Humidity;BMP_temperature;BMP_pressure;BME280_temperature;BME280_humidity;BME280_pressure;Samples;Min_cycle;Max_cycle;Signal;HPM_P1;HPM_P2
2021/04/07 00:00:36;;;;;;;35.20;17.52;;;;;;;0.92;61.49;99435.08;1696174;83;25821;-76
2021/04/07 00:03:08;;;;;;;38.70;16.97;;;;;;;0.91;61.55;99434.76;1748400;81;26394;-77
2021/04/07 00:05:39;;;;;;;42.33;18.90;;;;;;;0.93;61.59;99430.64;1725764;82;28931;-77
2021/04/07 00:08:07;;;;;;;;;;;;;;;0.95;61.63;99435.27;1716458;81;26064;-76
2021/04/07 00:10:41;;;;;;;44.25;19.35;;;;;;;0.92;61.64;99431.64;1734171;81;25903;-77
2021/04/07 00:13:11;;;;;;;42.55;18.32;;;;;;;0.88;61.69;99428.98;1747160;80;26504;-77
2021/04/07 00:15:41;;;;;;;38.85;18.07;;;;;;;0.87;61.76;99426.83;1709573;82;25833;-77
2021/04/07 00:18:09;;;;;;;39.03;18.02;;;;;;;0.87;61.80;99428.14;1751682;80;27472;-77
2021/04/07 00:20:37;;;;;;;36.10;18.27;;;;;;;0.87;61.85;99435.22;1707078;82;25875;-77
2021/04/07 00:23:06;;;;;;;41.60;18.05;;;;;;;0.84;61.90;99428.92;1719604;81;26204;-77
2021/04/07 00:25:37;;;;;;;35.48;17.70;;;;;;;0.85;61.96;99431.91;1721990;82;25811;-76
2021/04/07 00:28:05;;;;;;;36.10;17.75;;;;;;;0.82;62.05;99433.52;1715412;81;25797;-77
2021/04/07 00:30:36;;;;;;;34.48;17.92;;;;;;;0.81;62.13;99425.29;1735356;81;28059;-77
2021/04/07 00:33:04;;;;;;;;;;;;;;;0.80;62.16;99428.41;1732667;81;25778;-77
2021/04/07 00:35:32;;;;;;;42.95;16.97;;;;;;;0.78;62.21;99419.83;1717629;82;25760;-76
2021/04/07 00:37:59;;;;;;;31.85;15.58;;;;;;;0.75;62.36;99422.76;1750533;80;25763;-76
2021/04/07 00:40:27;;;;;;;34.35;16.30;;;;;;;0.76;62.42;99423.95;1720453;82;25892;-77
2021/04/07 00:42:55;;;;;;;35.40;15.55;;;;;;;0.77;62.42;99416.84;1730075;81;27713;-77
2021/04/07 00:45:23;;;;;;;31.82;15.88;;;;;;;0.73;62.50;99412.38;1718383;82;26164;-77
2021/04/07 00:47:52;;;;;;;36.42;16.48;;;;;;;0.69;62.60;99413.67;1754190;80;25783;-76
2021/04/07 00:50:24;;;;;;;34.38;16.20;;;;;;;0.70;62.68;99409.23;1731606;80;26313;-77
2021/04/07 00:52:52;;;;;;;34.38;18.07;;;;;;;0.71;62.83;99411.70;1746468;80;25775;-77
2021/04/07 00:55:26;;;;;;;33.90;16.23;;;;;;;0.73;62.78;99404.95;1704409;82;27541;-77
2021/04/07 00:57:55;;;;;;;33.67;15.25;;;;;;;0.71;62.80;99406.44;1692297;82;26618;-77
2021/04/07 01:00:24;;;;;;;39.35;19.73;;;;;;;0.69;62.82;99408.88;1713031;81;25929;-77
2021/04/07 01:02:55;;;;;;;33.45;15.32;;;;;;;0.65;62.95;99407.53;1723069;81;26438;-77
2021/04/07 01:05:22;;;;;;;;;;;;;;;0.63;63.10;99415.60;1702141;81;25393;-77
2021/04/07 01:07:49;;;;;;;30.80;15.40;;;;;;;0.60;63.28;99417.69;1722428;81;27425;-76
2021/04/07 01:10:17;;;;;;;30.15;15.93;;;;;;;0.55;63.38;99422.13;1736424;82;26531;-77
2021/04/07 01:12:44;;;;;;;30.85;14.90;;;;;;;0.48;63.57;99413.17;1703624;82;25904;-77
2021/04/07 01:15:14;;;;;;;35.88;14.85;;;;;;;0.45;63.77;99423.19;1718271;81;26593;-76
2021/04/07 01:17:42;;;;;;;39.80;16.90;;;;;;;0.41;64.04;99419.17;1712498;82;26502;-77
2021/04/07 01:20:14;;;;;;;33.60;16.27;;;;;;;0.39;64.11;99424.60;1725372;81;27701;-77
2021/04/07 01:22:41;;;;;;;35.78;17.05;;;;;;;0.41;64.39;99427.91;1747974;81;25901;-77
2021/04/07 01:25:11;;;;;;;35.52;16.70;;;;;;;0.44;64.43;99436.01;1740755;81;25814;-77
2021/04/07 01:27:40;;;;;;;36.83;17.85;;;;;;;0.45;64.37;99433.22;1696355;82;25884;-77
2021/04/07 01:30:12;;;;;;;38.40;18.12;;;;;;;0.46;64.46;99434.88;1752179;81;25761;-77
2021/04/07 01:32:39;;;;;;;37.53;18.52;;;;;;;0.47;64.44;99442.30;1705690;81;27537;-77
2021/04/07 01:35:09;;;;;;;33.83;15.78;;;;;;;0.46;64.45;99435.37;1726062;81;25774;-77
2021/04/07 01:37:37;;;;;;;41.98;17.45;;;;;;;0.42;64.49;99438.80;1703550;81;26481;-77
2021/04/07 01:40:10;;;;;;;34.27;16.37;;;;;;;0.26;64.91;99442.58;1736724;82;25766;-77
2021/04/07 01:42:47;;;;;;;31.40;15.38;;;;;;;0.32;64.91;99438.54;1820630;77;25556;-77
2021/04/07 01:45:15;;;;;;;36.73;16.80;;;;;;;0.22;65.23;99446.49;1760862;80;26333;-77
2021/04/07 01:47:49;;;;;;;36.65;16.90;;;;;;;0.18;65.21;99448.25;1785067;80;28439;-77
2021/04/07 01:50:17;;;;;;;34.63;15.93;;;;;;;0.15;65.37;99450.69;1787566;80;26351;-76
2021/04/07 01:52:44;;;;;;;33.28;15.28;;;;;;;0.13;65.62;99450.53;1788665;80;26568;-77
2021/04/07 01:55:12;;;;;;;36.60;17.05;;;;;;;0.12;65.83;99452.80;1737917;80;25815;-77
2021/04/07 01:57:40;;;;;;;36.25;16.87;;;;;;;0.12;66.06;99449.69;1736918;80;26425;-76
2021/04/07 02:00:14;;;;;;;38.50;17.25;;;;;;;0.12;66.01;99447.06;1761970;80;27081;-77
2021/04/07 02:02:43;;;;;;;39.73;16.97;;;;;;;0.11;66.11;99448.02;1784547;80;25686;-77
2021/04/07 02:05:12;;;;;;;32.23;15.95;;;;;;;0.10;66.19;99450.33;1737464;80;25819;-77
2021/04/07 02:07:39;;;;;;;33.92;16.42;;;;;;;0.09;66.38;99447.34;1736500;80;26567;-76
2021/04/07 02:10:10;;;;;;;33.50;15.68;;;;;;;0.07;66.58;99447.14;1788312;80;25959;-77
2021/04/07 02:12:37;;;;;;;31.75;14.70;;;;;;;0.00;66.67;99452.20;1788952;80;33316;-77
2021/04/07 02:15:13;;;;;;;31.40;15.70;;;;;;;-0.05;66.75;99451.33;1736218;80;26521;-76
2021/04/07 02:17:40;;;;;;;34.58;15.65;;;;;;;-0.08;66.85;99456.03;1761889;80;25854;-76
2021/04/07 02:20:09;;;;;;;32.33;15.23;;;;;;;-0.13;67.08;99456.47;1787665;80;25767;-77
2021/04/07 02:22:37;;;;;;;34.38;16.65;;;;;;;-0.14;67.59;99457.46;1788459;80;26165;-77
2021/04/07 02:25:07;;;;;;;31.90;14.30;;;;;;;-0.14;67.52;99457.46;1762486;80;27046;-77
2021/04/07 02:27:35;;;;;;;27.60;14.98;;;;;;;-0.13;67.70;99459.10;1736334;80;32623;-77
2021/04/07 02:30:11;;;;;;;30.10;14.65;;;;;;;-0.15;68.26;99464.20;1788569;80;25788;-77
2021/04/07 02:32:38;;;;;;;30.45;14.45;;;;;;;-0.19;68.02;99465.44;1788111;80;26390;-77
2021/04/07 02:35:08;;;;;;;23.42;12.90;;;;;;;-0.20;68.27;99467.75;1733293;80;26541;-76
2021/04/07 02:37:35;;;;;;;36.33;15.55;;;;;;;-0.21;68.49;99470.86;1737382;80;28430;-77
2021/04/07 02:40:04;;;;;;;33.78;14.43;;;;;;;-0.19;68.53;99469.38;1787842;78;25776;-76
2021/04/07 02:42:31;;;;;;;28.70;14.20;;;;;;;-0.19;68.80;99468.91;1758632;80;26488;-76
2021/04/07 02:44:59;;;;;;;26.33;13.00;;;;;;;-0.21;68.88;99465.59;1732990;80;25792;-77
2021/04/07 02:47:26;;;;;;;29.63;13.95;;;;;;;-0.21;68.97;99468.70;1733221;80;25967;-76
2021/04/07 02:49:54;;;;;;;31.42;14.45;;;;;;;-0.21;69.08;99464.76;1783890;80;28269;-78
2021/04/07 02:52:21;;;;;;;29.67;14.05;;;;;;;-0.26;69.06;99459.13;1774873;80;26175;-76
2021/04/07 02:54:48;;;;;;;32.53;15.32;;;;;;;-0.20;69.20;99470.38;1709862;80;25798;-77
2021/04/07 02:57:16;;;;;;;27.85;12.65;;;;;;;-0.19;69.31;99473.33;1729131;80;26451;-76
2021/04/07 02:59:43;;;;;;;21.80;12.50;;;;;;;-0.18;69.44;99473.20;1783216;80;26182;-77
2021/04/07 03:02:10;;;;;;;27.13;12.88;;;;;;;-0.17;69.41;99479.31;1775959;80;27532;-76
2021/04/07 03:04:38;;;;;;;32.40;14.10;;;;;;;-0.17;69.37;99476.16;1732999;80;26407;-76
2021/04/07 03:07:05;;;;;;;27.02;13.20;;;;;;;-0.16;69.41;99481.78;1732671;80;25880;-76
2021/04/07 03:09:32;;;;;;;23.10;12.10;;;;;;;-0.17;69.40;99479.31;1783682;80;25938;-77
2021/04/07 03:12:00;;;;;;;28.35;12.63;;;;;;;-0.17;69.52;99485.38;1777708;80;25772;-77
2021/04/07 03:14:28;;;;;;;29.40;13.35;;;;;;;-0.23;69.46;99475.92;1710044;80;28482;-77
2021/04/07 03:16:55;;;;;;;28.15;14.38;;;;;;;-0.17;69.49;99486.69;1721291;80;25769;-77
2021/04/07 03:19:23;;;;;;;37.38;17.20;;;;;;;-0.18;69.46;99485.53;1774485;80;25823;-76
2021/04/07 03:21:50;;;;;;;43.65;20.25;;;;;;;-0.20;69.91;99491.42;1774222;80;25769;-76
2021/04/07 03:24:17;;;;;;;33.45;16.82;;;;;;;-0.22;69.55;99492.06;1728012;80;26096;-76
2021/04/07 03:26:44;;;;;;;31.33;15.83;;;;;;;-0.23;69.64;99491.22;1732780;80;27539;-77
2021/04/07 03:29:12;;;;;;;35.98;14.95;;;;;;;-0.26;69.99;99497.28;1782684;80;25975;-76
2021/04/07 03:31:39;;;;;;;30.43;14.35;;;;;;;-0.26;69.99;99497.28;1779599;80;25726;-77
2021/04/07 03:34:06;;;;;;;38.90;16.45;;;;;;;-0.24;70.04;99505.37;1732829;80;26230;-76
2021/04/07 03:36:34;;;;;;;34.43;16.12;;;;;;;-0.27;70.07;99504.81;1732711;80;25714;-77
2021/04/07 03:39:01;;;;;;;30.82;17.50;;;;;;;-0.26;70.22;99507.32;1757384;80;27335;-77
2021/04/07 03:41:29;;;;;;;31.77;15.98;;;;;;;-0.23;70.48;99506.17;1777142;80;26162;-76
2021/04/07 03:43:56;;;;;;;29.37;15.00;;;;;;;-0.21;70.83;99512.95;1735308;80;26199;-77
2021/04/07 03:46:24;;;;;;;31.85;14.93;;;;;;;-0.19;70.82;99510.17;1779586;80;25849;-76
2021/04/07 03:48:51;;;;;;;27.32;14.10;;;;;;;-0.17;71.00;99516.15;1783438;79;25719;-77
2021/04/07 03:51:18;;;;;;;30.10;14.07;;;;;;;-0.14;71.04;99521.10;1767123;80;27507;-77
2021/04/07 03:53:46;;;;;;;33.83;15.43;;;;;;;-0.12;71.13;99516.05;1716653;80;26072;-76
2021/04/07 03:56:14;;;;;;;26.27;12.90;;;;;;;-0.09;71.27;99518.88;1730292;80;25830;-77
2021/04/07 03:58:41;;;;;;;27.58;14.15;;;;;;;-0.09;71.73;99524.98;1761455;80;25803;-76
2021/04/07 04:01:08;;;;;;;26.57;12.65;;;;;;;-0.10;71.70;99527.73;1788434;80;26072;-76
2021/04/07 04:03:35;;;;;;;27.15;13.40;;;;;;;-0.12;72.01;99524.42;1735005;80;27703;-76
2021/04/07 04:06:04;;;;;;;26.52;12.03;;;;;;;-0.16;72.27;99519.94;1732080;80;26063;-76
2021/04/07 04:08:31;;;;;;;29.45;13.90;;;;;;;-0.18;72.64;99521.89;1756479;80;25915;-77
2021/04/07 04:10:58;;;;;;;30.27;13.15;;;;;;;-0.17;72.54;99527.99;1787112;80;26543;-76
2021/04/07 04:13:25;;;;;;;25.35;11.57;;;;;;;-0.13;72.89;99531.98;1736674;80;25728;-76
2021/04/07 04:15:53;;;;;;;26.37;13.00;;;;;;;-0.13;73.54;99531.98;1732550;80;28470;-77
2021/04/07 04:18:20;;;;;;;25.95;13.80;;;;;;;-0.11;73.20;99537.94;1787283;80;26535;-76
2021/04/07 04:20:47;;;;;;;25.70;12.30;;;;;;;-0.08;73.25;99538.46;1787729;80;25720;-76
2021/04/07 04:23:15;;;;;;;30.40;15.43;;;;;;;-0.05;73.26;99546.08;1703572;80;25928;-77
2021/04/07 04:25:42;;;;;;;30.65;15.85;;;;;;;-0.02;73.34;99544.94;1736713;80;25827;-76
2021/04/07 04:28:09;;;;;;;39.33;19.07;;;;;;;0.04;73.64;99543.55;1761343;80;27286;-76
2021/04/07 04:30:37;;;;;;;52.58;25.88;;;;;;;0.04;73.64;99541.75;1787844;80;25722;-76
2021/04/07 04:33:05;;;;;;;28.55;15.40;;;;;;;0.08;73.68;99548.86;1736607;80;25878;-76
2021/04/07 04:35:32;;;;;;;30.37;15.75;;;;;;;0.09;73.55;99549.19;1736599;80;25851;-76
2021/04/07 04:37:59;;;;;;;28.25;14.83;;;;;;;0.10;73.49;99546.91;1787388;80;25843;-77
2021/04/07 04:40:27;;;;;;;26.70;14.28;;;;;;;0.14;73.82;99546.47;1787283;80;26928;-77
2021/04/07 04:42:54;;;;;;;24.75;12.50;;;;;;;0.15;73.94;99545.98;1736416;80;25680;-77
2021/04/07 04:45:21;;;;;;;28.77;15.10;;;;;;;0.18;73.89;99544.36;1720834;80;25948;-77
2021/04/07 04:47:49;;;;;;;31.50;15.53;;;;;;;0.22;73.65;99545.72;1787335;80;25960;-76
2021/04/07 04:50:16;;;;;;;31.17;14.00;;;;;;;0.25;73.76;99549.39;1788208;80;25816;-76
2021/04/07 04:52:43;;;;;;;25.72;12.65;;;;;;;0.28;73.65;99555.70;1761254;80;28513;-76
2021/04/07 04:55:11;;;;;;;22.20;11.73;;;;;;;0.34;73.97;99562.49;1761131;80;25742;-76
2021/04/07 04:57:39;;;;;;;25.80;13.10;;;;;;;0.35;73.64;99562.84;1761994;80;25809;-76
2021/04/07 05:00:08;;;;;;;23.30;13.35;;;;;;;0.36;73.66;99561.89;1787783;80;25927;-76
2021/04/07 05:02:36;;;;;;;30.05;14.00;;;;;;;0.46;74.11;99565.77;1711229;80;26432;-76
2021/04/07 05:05:05;;;;;;;25.20;14.18;;;;;;;0.47;73.50;99568.24;1712329;80;27555;-76
2021/04/07 05:07:33;;;;;;;31.42;13.88;;;;;;;0.48;73.43;99567.28;1760746;80;26187;-77
2021/04/07 05:10:00;;;;;;;24.85;13.80;;;;;;;0.52;73.70;99566.00;1752428;81;25737;-76
2021/04/07 05:12:27;;;;;;;27.70;17.05;;;;;;;0.54;73.80;99569.80;1698863;82;25779;-79
2021/04/07 05:14:54;;;;;;;29.42;16.20;;;;;;;0.54;73.51;99575.91;1657440;82;26559;-79
2021/04/07 05:17:22;;;;;;;30.88;18.52;;;;;;;0.57;73.56;99576.11;1688505;82;27560;-76
2021/04/07 05:19:49;;;;;;;33.02;19.45;;;;;;;0.58;73.46;99577.27;1716532;82;25963;-76
2021/04/07 05:22:17;;;;;;;32.48;16.62;;;;;;;0.61;73.56;99570.39;1736490;81;25778;-76
2021/04/07 05:24:45;;;;;;;21.05;12.43;;;;;;;0.66;73.54;99577.86;1667167;82;25781;-76
2021/04/07 05:27:12;;;;;;;23.18;13.48;;;;;;;0.67;73.50;99576.38;1691027;82;26377;-76
2021/04/07 05:29:40;;;;;;;29.85;16.67;;;;;;;0.67;73.64;99586.08;1713159;82;28307;-76
2021/04/07 05:32:08;;;;;;;27.05;15.78;;;;;;;0.63;73.65;99585.56;1736485;82;25914;-76
2021/04/07 05:34:35;;;;;;;28.75;16.23;;;;;;;0.64;73.85;99585.89;1668535;82;25837;-76
2021/04/07 05:37:02;;;;;;;25.30;14.63;;;;;;;0.65;73.96;99585.41;1684156;82;25844;-76
2021/04/07 05:39:30;;;;;;;25.55;14.55;;;;;;;0.65;73.81;99594.15;1715118;82;26506;-77
2021/04/07 05:41:57;;;;;;;25.00;13.43;;;;;;;0.67;73.91;99588.72;1713760;82;27537;-76
2021/04/07 05:44:24;;;;;;;25.77;14.30;;;;;;;0.69;73.92;99584.96;1664294;82;26126;-77
2021/04/07 05:46:52;;;;;;;25.40;14.05;;;;;;;0.71;74.11;99591.39;1715307;82;25839;-77
2021/04/07 05:49:19;;;;;;;25.17;14.20;;;;;;;0.70;73.85;99596.34;1684581;82;26338;-76
2021/04/07 05:51:46;;;;;;;24.35;13.70;;;;;;;0.70;73.75;99598.50;1732243;81;26188;-76
2021/04/07 05:54:14;;;;;;;23.65;12.23;;;;;;;0.73;73.69;99603.94;1638551;82;28476;-77
2021/04/07 05:56:41;;;;;;;21.95;12.13;;;;;;;0.76;74.19;99601.85;1714964;82;26201;-76
2021/04/07 05:59:08;;;;;;;25.62;14.87;;;;;;;0.76;73.89;99611.55;1716153;82;25630;-76
2021/04/07 06:01:35;;;;;;;30.80;16.10;;;;;;;0.77;74.00;99608.77;1736095;82;25944;-76
2021/04/07 06:04:03;;;;;;;30.85;17.75;;;;;;;0.82;74.37;99608.32;1669561;81;25752;-76
2021/04/07 06:06:31;;;;;;;32.65;18.32;;;;;;;0.89;74.01;99613.83;1690959;82;27547;-76
2021/04/07 06:08:58;;;;;;;27.67;14.87;;;;;;;0.91;74.10;99619.78;1715621;82;25825;-76
2021/04/07 06:11:25;;;;;;;21.27;13.00;;;;;;;0.91;73.97;99626.37;1736519;82;26110;-76
2021/04/07 06:13:53;;;;;;;19.70;11.73;;;;;;;0.88;74.10;99631.44;1663052;82;25948;-76
2021/04/07 06:16:20;;;;;;;20.48;12.88;;;;;;;0.86;73.91;99629.45;1691035;82;25889;-76
2021/04/07 06:18:47;;;;;;;19.07;12.55;;;;;;;0.85;73.80;99631.77;1658676;82;28245;-76
2021/04/07 06:21:16;;;;;;;20.50;12.70;;;;;;;0.81;74.05;99628.25;1736646;82;25897;-76
2021/04/07 06:23:43;;;;;;;19.02;12.43;;;;;;;0.78;73.95;99635.95;1667725;82;25919;-76
2021/04/07 06:26:11;;;;;;;25.50;12.47;;;;;;;0.77;74.10;99635.60;1714697;82;26555;-75
2021/04/07 06:28:38;;;;;;;21.80;13.85;;;;;;;0.73;74.23;99639.03;1714266;82;25821;-76
2021/04/07 06:31:05;;;;;;;19.65;13.00;;;;;;;0.72;74.10;99642.66;1736592;82;28484;-76
2021/04/07 06:33:37;;;;;;;20.88;12.88;;;;;;;0.73;74.49;99637.72;1668352;82;25853;-76
2021/04/07 06:36:06;;;;;;;21.35;13.05;;;;;;;0.77;74.15;99641.71;1715421;82;26003;-76
2021/04/07 06:38:36;;;;;;;21.63;13.07;;;;;;;0.81;74.48;99646.70;1711092;82;26206;-76
2021/04/07 06:41:04;;;;;;;19.97;11.93;;;;;;;0.82;74.06;99647.86;1736899;82;26503;-76
2021/04/07 06:43:33;;;;;;;17.73;10.63;;;;;;;0.82;73.90;99647.02;1660484;82;27555;-76
2021/04/07 06:46:05;;;;;;;15.88;9.95;;;;;;;0.85;74.23;99657.28;1681502;82;25822;-76
2021/04/07 06:48:33;;;;;;;17.00;11.00;;;;;;;0.84;74.00;99653.81;1707598;82;25868;-76
2021/04/07 06:51:04;;;;;;;20.10;11.45;;;;;;;0.82;74.01;99658.41;1743290;81;26526;-76
2021/04/07 06:53:34;;;;;;;21.73;12.53;;;;;;;0.81;73.91;99665.98;1682636;83;26429;-76
2021/04/07 06:56:01;;;;;;;20.15;12.98;;;;;;;0.83;73.89;99669.78;1675787;81;27650;-76
2021/04/07 06:58:29;;;;;;;17.75;11.80;;;;;;;0.83;73.95;99667.15;1696178;83;25889;-76
2021/04/07 07:00:56;;;;;;;19.62;11.90;;;;;;;0.82;73.98;99668.95;1719228;81;26110;-76
2021/04/07 07:03:24;;;;;;;18.20;11.97;;;;;;;0.81;73.99;99671.26;1679336;83;26523;-77
2021/04/07 07:05:54;;;;;;;20.62;11.22;;;;;;;0.83;73.93;99673.26;1671926;83;26032;-77
2021/04/07 07:08:22;;;;;;;18.67;11.60;;;;;;;0.89;74.08;99671.83;1743139;81;28290;-76
2021/04/07 07:10:52;;;;;;;18.42;11.28;;;;;;;0.95;74.05;99673.38;1720193;81;25830;-76
2021/04/07 07:13:23;;;;;;;16.77;9.65;;;;;;;1.03;73.92;99674.78;1674160;81;26294;-76
2021/04/07 07:15:53;;;;;;;21.52;12.53;;;;;;;1.08;73.95;99672.54;1674741;83;26578;-76
2021/04/07 07:18:23;;;;;;;17.50;10.13;;;;;;;1.14;73.86;99665.83;1695432;81;26490;-76
2021/04/07 07:20:52;;;;;;;21.30;11.73;;;;;;;1.16;73.63;99663.38;1725267;83;28504;-76
2021/04/07 07:23:32;;;;;;;14.83;8.63;;;;;;;1.19;73.72;99664.89;1690023;81;32201;-76
2021/04/07 07:26:09;;;;;;;17.65;10.50;;;;;;;1.24;73.74;99662.66;1686902;82;25883;-76
2021/04/07 07:28:43;;;;;;;28.35;15.80;;;;;;;1.27;73.74;99668.45;1735579;82;25797;-76
2021/04/07 07:31:31;;;;;;;31.95;15.38;;;;;;;1.31;73.58;99667.16;1736952;82;25850;-76
2021/04/07 07:34:02;;;;;;;34.60;14.45;;;;;;;1.39;73.80;99666.42;1662339;82;28281;-77
2021/04/07 07:36:34;;;;;;;19.15;13.50;;;;;;;1.44;73.56;99667.61;1708258;82;25834;-76
2021/04/07 07:39:05;;;;;;;18.50;12.28;;;;;;;1.55;73.81;99677.11;1703584;82;26144;-76
2021/04/07 07:41:36;;;;;;;18.55;10.75;;;;;;;1.60;73.24;99677.49;1736661;82;25885;-76
2021/04/07 07:44:04;;;;;;;17.48;11.08;;;;;;;1.63;72.83;99680.29;1722116;81;25840;-76
2021/04/07 07:46:36;;;;;;;17.02;9.98;;;;;;;1.65;72.99;99687.08;1673835;83;27611;-76
2021/04/07 07:49:19;;;;;;;19.12;11.95;;;;;;;1.69;72.88;99684.98;1697535;81;25823;-76
2021/04/07 07:51:50;;;;;;;32.20;16.10;;;;;;;1.68;72.97;99684.16;1722049;83;25865;-76
2021/04/07 07:54:21;;;;;;;33.55;21.17;;;;;;;1.69;72.75;99688.95;1690875;81;25813;-76
2021/04/07 07:56:50;;;;;;;21.68;13.03;;;;;;;1.69;72.59;99687.63;1693906;83;26232;-75
2021/04/07 07:59:30;;;;;;;14.55;10.03;;;;;;;1.69;72.69;99693.71;1746225;81;28800;-75
2021/04/07 08:01:59;;;;;;;16.15;9.50;;;;;;;1.69;72.30;99696.87;1725157;83;26028;-75
2021/04/07 08:04:27;;;;;;;14.58;9.33;;;;;;;1.66;72.49;99697.16;1697238;81;26531;-75
2021/04/07 08:06:54;;;;;;;14.43;9.23;;;;;;;1.63;72.54;99697.45;1695394;83;25819;-76
2021/04/07 08:09:22;;;;;;;16.67;9.53;;;;;;;1.63;72.69;99700.09;1692226;81;25854;-76
2021/04/07 08:11:49;;;;;;;13.35;8.13;;;;;;;1.65;72.62;99702.92;1725185;83;28214;-76
2021/04/07 08:14:18;;;;;;;19.15;10.45;;;;;;;1.70;72.68;99707.75;1667133;81;25703;-76
2021/04/07 08:16:47;;;;;;;16.05;10.03;;;;;;;1.77;72.72;99701.72;1651653;83;26039;-76
2021/04/07 08:19:15;;;;;;;23.80;13.25;;;;;;;1.89;72.31;99712.86;1719503;81;25862;-76
2021/04/07 08:21:45;;;;;;;20.08;11.75;;;;;;;1.97;72.44;99708.47;1721434;83;26417;-76
2021/04/07 08:24:14;;;;;;;17.95;11.00;;;;;;;2.05;72.33;99709.03;1695567;82;28560;-77
2021/04/07 08:26:44;;;;;;;17.80;10.75;;;;;;;2.10;72.22;99708.89;1669412;83;25808;-76
2021/04/07 08:29:11;;;;;;;24.32;12.55;;;;;;;2.17;71.91;99703.82;1745839;81;26484;-76
2021/04/07 08:31:40;;;;;;;19.45;8.75;;;;;;;2.24;72.08;99716.27;1746026;81;26137;-75
2021/04/07 08:34:10;;;;;;;14.53;8.53;;;;;;;2.33;71.59;99710.55;1697377;81;26335;-76
2021/04/07 08:36:45;;;;;;;15.08;8.55;;;;;;;2.32;70.63;99707.07;1672659;83;27556;-76
2021/04/07 08:39:16;;;;;;;14.23;9.30;;;;;;;2.28;70.46;99714.98;1720884;81;26090;-75
2021/04/07 08:41:47;;;;;;;17.02;9.33;;;;;;;2.27;70.99;99712.47;1695059;83;25817;-76
2021/04/07 08:44:17;;;;;;;13.30;8.45;;;;;;;2.33;70.81;99712.67;1672530;82;26519;-76
2021/04/07 08:46:52;;;;;;;16.77;8.70;;;;;;;2.41;70.59;99716.36;1720916;82;25709;-76
2021/04/07 08:49:44;;;;;;;17.45;8.70;;;;;;;2.48;70.50;99711.59;1698371;82;28000;-76
2021/04/07 08:52:15;;;;;;;;;;;;;;;2.67;70.67;99710.56;1658665;83;25937;-76
2021/04/07 08:54:47;;;;;;;15.45;8.40;;;;;;;2.84;70.73;99716.26;1705355;82;25912;-76
2021/04/07 08:57:36;;;;;;;13.18;8.75;;;;;;;2.91;70.11;99718.09;1724993;82;25971;-76
2021/04/07 09:00:16;;;;;;;15.80;9.43;;;;;;;3.04;70.88;99714.51;1698005;82;26179;-77
2021/04/07 09:03:01;;;;;;;16.05;9.55;;;;;;;3.12;69.06;99717.69;1721344;82;28303;-76
2021/04/07 09:05:35;;;;;;;10.70;7.75;;;;;;;3.08;69.17;99713.69;1681986;82;26126;-76
2021/04/07 09:08:05;;;;;;;12.40;8.38;;;;;;;3.10;68.72;99719.67;1686622;83;25857;-75
2021/04/07 09:10:46;;;;;;;12.28;7.90;;;;;;;3.13;68.43;99714.04;1689229;83;25826;-76
2021/04/07 09:13:26;;;;;;;10.55;6.37;;;;;;;3.23;68.61;99723.18;1714780;82;25823;-76
2021/04/07 09:16:08;;;;;;;12.03;6.92;;;;;;;3.32;67.87;99722.19;1715488;82;27528;-77
2021/04/07 09:18:39;;;;;;;12.73;7.30;;;;;;;3.31;67.70;99721.38;1715756;82;26379;-76
2021/04/07 09:21:21;;;;;;;12.20;7.08;;;;;;;3.35;68.13;99719.23;1707925;82;25914;-76
2021/04/07 09:24:02;;;;;;;13.53;6.90;;;;;;;3.45;68.60;99719.41;1714847;82;25847;-76
2021/04/07 09:26:32;;;;;;;11.18;5.33;;;;;;;3.58;68.00;99728.20;1721520;82;26121;-77
2021/04/07 09:28:59;;;;;;;14.33;7.87;;;;;;;3.63;66.11;99716.15;1698613;82;27412;-76
2021/04/07 09:31:33;;;;;;;10.88;7.22;;;;;;;3.64;67.66;99720.44;1711319;82;26606;-76
2021/04/07 09:34:02;;;;;;;13.83;7.60;;;;;;;3.66;66.57;99721.09;1745169;81;25582;-76
2021/04/07 09:36:36;;;;;;;14.43;7.70;;;;;;;3.55;66.97;99720.09;1719904;82;25696;-77
2021/04/07 09:39:07;;;;;;;11.10;7.10;;;;;;;3.54;66.66;99723.74;1717286;82;25816;-76
2021/04/07 09:41:37;;;;;;;11.15;7.50;;;;;;;3.44;66.65;99727.53;1742947;81;27520;-76
2021/04/07 09:44:07;;;;;;;10.58;6.53;;;;;;;3.32;66.96;99726.16;1741060;81;25820;-76
2021/04/07 09:46:36;;;;;;;11.55;6.42;;;;;;;3.26;66.51;99725.48;1703195;81;25987;-76
2021/04/07 09:49:13;;;;;;;10.18;6.53;;;;;;;3.29;67.44;99725.17;1727117;81;25849;-76
2021/04/07 09:51:43;;;;;;;9.75;5.83;;;;;;;3.42;67.54;99726.34;1727812;81;25822;-77
2021/04/07 09:54:29;;;;;;;10.98;6.47;;;;;;;3.59;66.41;99726.70;1704262;81;28256;-77
2021/04/07 09:57:04;;;;;;;9.33;5.85;;;;;;;3.74;66.12;99723.75;1726689;81;26229;-76
2021/04/07 09:59:47;;;;;;;9.60;5.75;;;;;;;3.84;65.59;99731.06;1717939;81;25919;-77
2021/04/07 10:02:26;;;;;;;19.40;7.62;;;;;;;3.91;65.20;99734.69;1727755;81;25863;-76
2021/04/07 10:04:56;;;;;;;15.95;6.28;;;;;;;3.95;64.85;99721.95;1726074;81;25928;-76
2021/04/07 10:07:25;;;;;;;9.65;5.80;;;;;;;4.08;64.26;99722.28;1681040;81;27558;-76
2021/04/07 10:09:56;;;;;;;10.40;6.03;;;;;;;4.22;64.81;99724.25;1690462;81;26238;-76
2021/04/07 10:12:26;;;;;;;8.65;4.40;;;;;;;4.31;64.12;99735.18;1753100;81;26354;-76
2021/04/07 10:14:59;;;;;;;8.60;5.45;;;;;;;4.35;63.80;99731.19;1727528;81;25869;-76
2021/04/07 10:17:32;;;;;;;14.53;7.53;;;;;;;4.38;62.63;99726.89;1728474;81;25942;-76
2021/04/07 10:20:12;;;;;;;12.30;6.35;;;;;;;4.36;63.33;99728.85;1728642;81;27528;-76
2021/04/07 10:22:42;;;;;;;11.75;7.95;;;;;;;4.35;62.71;99730.36;1726416;81;26025;-76
2021/04/07 10:25:14;;;;;;;11.47;7.50;;;;;;;4.24;62.89;99736.83;1724222;81;25736;-77
2021/04/07 10:27:43;;;;;;;12.82;7.08;;;;;;;4.11;63.13;99739.16;1704632;81;25818;-76
2021/04/07 10:30:17;;;;;;;10.90;5.28;;;;;;;4.04;64.79;99736.86;1700062;81;25925;-76
2021/04/07 10:32:49;;;;;;;10.90;6.10;;;;;;;4.07;65.03;99741.81;1727514;81;28918;-76
2021/04/07 10:35:26;;;;;;;9.68;6.45;;;;;;;4.09;65.60;99735.84;1713092;81;25802;-76
2021/04/07 10:38:14;;;;;;;12.60;7.45;;;;;;;4.04;65.72;99738.67;1725168;81;25773;-76
2021/04/07 10:40:45;;;;;;;7.40;5.22;;;;;;;4.03;65.88;99744.95;1726346;81;26228;-76
2021/04/07 10:43:18;;;;;;;10.40;6.37;;;;;;;4.03;66.23;99744.95;1728585;81;25738;-76
2021/04/07 10:46:04;;;;;;;10.23;6.25;;;;;;;4.05;66.33;99750.92;1712606;81;28217;-76
2021/04/07 10:48:32;;;;;;;11.88;7.62;;;;;;;4.12;66.42;99757.22;1725416;81;26258;-76
2021/04/07 10:51:00;;;;;;;11.93;8.18;;;;;;;4.17;65.99;99755.71;1728293;81;26192;-76
2021/04/07 10:53:41;;;;;;;17.77;9.05;;;;;;;4.25;66.30;99756.22;1727924;81;25873;-76
2021/04/07 10:56:19;;;;;;;14.47;8.95;;;;;;;4.26;65.99;99752.56;1728104;81;25915;-76
2021/04/07 10:58:56;;;;;;;13.98;9.00;;;;;;;4.23;66.35;99755.56;1704008;81;27553;-76
2021/04/07 11:01:32;;;;;;;14.50;7.72;;;;;;;4.23;66.30;99757.72;1728304;81;26201;-76
2021/04/07 11:04:15;;;;;;;14.40;9.10;;;;;;;4.19;66.35;99752.92;1725297;81;25731;-76
2021/04/07 11:06:43;;;;;;;14.28;8.83;;;;;;;4.17;66.58;99749.61;1712092;81;25860;-76
2021/04/07 11:09:14;;;;;;;12.95;7.75;;;;;;;4.27;67.18;99754.23;1703638;81;26187;-76
2021/04/07 11:11:43;;;;;;;10.98;7.58;;;;;;;4.46;66.68;99750.73;1690415;81;27535;-76
2021/04/07 11:14:11;;;;;;;15.65;8.85;;;;;;;4.56;65.93;99747.39;1688862;81;26040;-76
2021/04/07 11:16:39;;;;;;;12.37;8.93;;;;;;;4.61;65.66;99752.19;1728091;81;26387;-77
2021/04/07 11:19:17;;;;;;;12.40;7.95;;;;;;;4.72;64.98;99751.00;1703816;81;26411;-77
2021/04/07 11:21:45;;;;;;;10.25;6.85;;;;;;;4.76;64.67;99744.36;1700700;81;26061;-76
2021/04/07 11:24:12;;;;;;;12.25;8.58;;;;;;;4.87;65.27;99740.85;1727385;81;27545;-76
2021/04/07 11:26:40;;;;;;;12.05;6.92;;;;;;;5.05;65.69;99733.95;1727548;81;26551;-76
2021/04/07 11:29:07;;;;;;;9.58;5.85;;;;;;;5.16;63.92;99737.08;1728083;81;25813;-76
2021/04/07 11:31:35;;;;;;;7.72;5.47;;;;;;;5.10;63.05;99737.77;1701038;81;26485;-76
2021/04/07 11:34:07;;;;;;;12.30;7.72;;;;;;;5.02;62.84;99747.09;1727072;80;26077;-76
2021/04/07 11:39:23;;;;;;;9.55;6.35;;;;;;;4.95;63.28;99743.47;1704691;81;26181;-76
2021/04/07 11:46:46;;;;;;;8.73;5.25;;;;;;;4.83;62.15;99750.16;1726981;81;25808;-76